createdAt,value
2022-12-09T00:02:12.118Z,100429.91
2022-12-09T00:07:14.822Z,100423.66
2022-12-09T00:12:17.745Z,100422.56
2022-12-09T00:17:21.756Z,100418.59
2022-12-09T00:22:24.345Z,100419.16
2022-12-09T00:27:26.900Z,100415.69
2022-12-09T00:32:30.873Z,100419.03
2022-12-09T00:37:34.998Z,100419.94
2022-12-09T00:42:37.637Z,100419.03
2022-12-09T00:47:41.595Z,100413.34
2022-12-09T00:52:44.485Z,100417.75
2022-12-09T00:57:47.359Z,100417.75
2022-12-09T01:02:51.645Z,100421.00
2022-12-09T01:07:54.601Z,100419.44
2022-12-09T01:12:57.212Z,100415.03
2022-12-09T01:18:01.303Z,100407.13
2022-12-09T01:23:04.708Z,100411.44
2022-12-09T01:28:07.329Z,100417.66
2022-12-09T01:33:11.563Z,100416.78
2022-12-09T01:38:14.780Z,100422.63
2022-12-09T01:43:19.274Z,100380.47
2022-12-09T01:48:26.429Z,100417.66
2022-12-09T01:53:32.924Z,100416.69
2022-12-09T01:58:35.850Z,100415.50
2022-12-09T02:03:40.956Z,100400.63
2022-12-09T02:08:44.808Z,100410.72
2022-12-09T02:13:59.276Z,100409.25
2022-12-09T02:19:17.626Z,100407.78
2022-12-09T02:24:29.337Z,100407.72
2022-12-09T02:29:54.700Z,100405.66
2022-12-09T02:35:06.431Z,100406.28
2022-12-09T02:40:16.877Z,100403.31
2022-12-09T02:45:23.781Z,100404.22
2022-12-09T02:50:35.621Z,100398.97
2022-12-09T02:55:41.693Z,100386.91
2022-12-09T03:00:45.260Z,100391.50
2022-12-09T03:05:55.727Z,100394.28
2022-12-09T03:11:02.306Z,100388.09
2022-12-09T03:16:11.511Z,100383.69
2022-12-09T03:21:19.547Z,100385.34
2022-12-09T03:26:24.941Z,100388.72
2022-12-09T03:31:31.867Z,100281.63
2022-12-09T03:36:39.894Z,100370.59
2022-12-09T03:41:45.938Z,100379.16
2022-12-09T03:46:49.186Z,100376.84
2022-12-09T03:51:58.010Z,100376.66
2022-12-09T03:57:02.211Z,100364.94
2022-12-09T04:02:07.583Z,100371.53
2022-12-09T04:07:11.722Z,100364.66
2022-12-09T04:12:17.652Z,100363.25
2022-12-09T04:17:20.348Z,100371.66
2022-12-09T04:22:24.753Z,100367.66
2022-12-09T04:27:29.359Z,100360.63
2022-12-09T04:32:33.669Z,100350.25
2022-12-09T04:37:37.965Z,100351.22
2022-12-09T04:42:40.601Z,100337.78
2022-12-09T04:47:43.175Z,100346.34
2022-12-09T04:52:47.175Z,100348.59
2022-12-09T04:57:50.634Z,100352.94
2022-12-09T05:02:53.535Z,100347.50
2022-12-09T05:07:57.937Z,100359.44
2022-12-09T05:13:01.544Z,100357.03
2022-12-09T05:18:04.525Z,100356.19
2022-12-09T05:23:09.869Z,100357.59
2022-12-09T05:28:12.983Z,100352.72
2022-12-09T05:33:15.970Z,100350.81
2022-12-09T05:38:20.321Z,100355.75
2022-12-09T05:43:23.274Z,100338.22
2022-12-09T05:48:26.354Z,100354.09
2022-12-09T05:53:31.516Z,100344.72
2022-12-09T05:58:34.984Z,100349.41
2022-12-09T06:03:38.766Z,100328.34
2022-12-09T06:08:44.383Z,100334.13
2022-12-09T06:13:47.915Z,100333.03
2022-12-09T06:18:51.522Z,100334.69
2022-12-09T06:23:56.306Z,100325.53
2022-12-09T06:29:00.545Z,100321.06
2022-12-09T06:34:03.721Z,100333.25
2022-12-09T06:39:10.613Z,100332.41
2022-12-09T06:44:19.953Z,100336.78
2022-12-09T06:49:26.302Z,100330.75
2022-12-09T06:54:30.488Z,100344.34
2022-12-09T06:59:42.975Z,100340.97
2022-12-09T07:04:48.729Z,100349.47
2022-12-09T07:09:53.447Z,100337.78
2022-12-09T07:14:56.428Z,100341.34
2022-12-09T07:20:04.956Z,100349.03
2022-12-09T07:25:11.304Z,100353.63
2022-12-09T07:30:14.884Z,100357.88
2022-12-09T07:35:18.060Z,100350.66
2022-12-09T07:40:22.166Z,100352.94
2022-12-09T07:45:24.885Z,100358.41
2022-12-09T07:50:27.636Z,100363.25
2022-12-09T07:55:31.886Z,100373.59
2022-12-09T08:00:34.719Z,100376.69
2022-12-09T08:05:37.824Z,100370.59
2022-12-09T08:10:42.510Z,100373.00
2022-12-09T08:15:45.898Z,100383.44
2022-12-09T08:20:48.806Z,100395.22
2022-12-09T08:25:55.394Z,100386.03
2022-12-09T08:30:59.324Z,100376.28
2022-12-09T08:36:02.616Z,100381.63
2022-12-09T08:41:11.884Z,100371.00
2022-12-09T08:46:15.630Z,100382.63
2022-12-09T08:51:19.128Z,100361.31
2022-12-09T08:56:23.871Z,100377.81
2022-12-09T09:01:32.263Z,100377.41
2022-12-09T09:06:36.299Z,100374.94
2022-12-09T09:11:42.084Z,100385.84
2022-12-09T09:16:46.410Z,100386.25
2022-12-09T09:21:49.788Z,100388.72
2022-12-09T09:26:54.846Z,100389.72
2022-12-09T09:31:57.893Z,100390.81
2022-12-09T09:37:01.133Z,100399.09
2022-12-09T09:42:09.066Z,100393.84
2022-12-09T09:47:17.025Z,100398.88
2022-12-09T09:52:22.557Z,100398.22
2022-12-09T09:57:32.662Z,100392.09
2022-12-09T10:02:57.999Z,100388.50
2022-12-09T10:08:19.836Z,100377.28
2022-12-09T10:13:37.652Z,100383.25
2022-12-09T10:18:50.219Z,100366.41
2022-12-09T10:23:56.482Z,100379.69
2022-12-09T10:29:21.310Z,100385.78
2022-12-09T10:34:25.106Z,100369.75
2022-12-09T10:39:29.893Z,100380.84
2022-12-09T10:44:34.095Z,100375.69
2022-12-09T10:49:37.165Z,100341.66
2022-12-09T10:54:44.751Z,100371.44
2022-12-09T11:00:00.754Z,100374.53
2022-12-09T11:05:25.539Z,100368.97
2022-12-09T11:10:31.087Z,100358.50
2022-12-09T11:15:41.542Z,100356.34
2022-12-09T11:20:56.144Z,100351.22
2022-12-09T11:26:01.139Z,100356.19
2022-12-09T11:36:35.336Z,100357.09
2022-12-09T11:42:05.114Z,100350.59
2022-12-09T11:47:11.817Z,100326.75
2022-12-09T11:52:25.304Z,100338.41
2022-12-09T11:57:45.347Z,100340.72
2022-12-09T12:02:57.741Z,100336.53
2022-12-09T12:08:08.968Z,100328.56
2022-12-09T12:13:23.609Z,100334.56
2022-12-09T12:18:31.973Z,100329.06
2022-12-09T12:23:50.974Z,100327.75
2022-12-09T12:29:11.018Z,100330.22
2022-12-09T12:34:25.737Z,100330.81
2022-12-09T12:39:43.107Z,100318.88
2022-12-09T12:45:10.778Z,100326.06
2022-12-09T12:50:39.656Z,100300.00
2022-12-09T12:56:02.621Z,100319.63
2022-12-09T13:01:13.681Z,100317.88
2022-12-09T13:06:22.006Z,100314.63
2022-12-09T13:11:30.460Z,100320.66
2022-12-09T13:16:39.168Z,100312.47
2022-12-09T13:21:45.238Z,100276.41
2022-12-09T13:26:56.426Z,100309.59
2022-12-09T13:32:09.232Z,100310.94
2022-12-09T13:37:57.405Z,100308.59
2022-12-09T13:43:10.723Z,100310.34
2022-12-09T13:48:47.360Z,100215.03
2022-12-09T13:54:00.700Z,100314.91
2022-12-09T13:59:36.599Z,100307.78
2022-12-09T14:04:48.523Z,100300.81
2022-12-09T14:09:55.774Z,100300.78
2022-12-09T14:15:01.340Z,100306.34
2022-12-09T14:20:20.357Z,100302.50
2022-12-09T14:25:55.394Z,100311.75
2022-12-09T14:31:06.569Z,100311.13
2022-12-09T14:36:27.900Z,100319.84
2022-12-09T14:41:39.565Z,100328.78
2022-12-09T14:46:46.300Z,100324.06
2022-12-09T14:51:50.930Z,100329.50
2022-12-09T14:56:58.653Z,100331.84
2022-12-09T15:02:04.221Z,100342.16
2022-12-09T15:07:08.941Z,100335.72
2022-12-09T15:12:13.153Z,100326.31
2022-12-09T15:17:26.601Z,100326.59
2022-12-09T15:22:31.874Z,100332.13
2022-12-09T15:27:35.759Z,100336.22
2022-12-09T15:32:39.795Z,100346.25
2022-12-09T15:37:42.553Z,100346.19
2022-12-09T15:42:51.357Z,100354.81
2022-12-09T15:47:57.775Z,100346.59
2022-12-09T15:53:08.794Z,100348.59
2022-12-09T15:58:18.108Z,100345.31
2022-12-09T16:03:23.538Z,100362.28
2022-12-09T16:08:34.624Z,100348.81
2022-12-09T16:13:57.949Z,100344.84
2022-12-09T16:19:00.474Z,100348.75
2022-12-09T16:24:11.560Z,100351.22
2022-12-09T16:29:22.659Z,100344.50
2022-12-09T16:34:27.460Z,100357.50
2022-12-09T16:39:35.625Z,100355.84
2022-12-09T16:44:40.465Z,100354.63
2022-12-09T16:49:46.275Z,100359.50
2022-12-09T16:54:50.863Z,100363.28
2022-12-09T16:59:54.888Z,100354.56
2022-12-09T17:04:57.879Z,100369.44
2022-12-09T17:10:00.399Z,100367.31
2022-12-09T17:15:04.779Z,100366.38
2022-12-09T17:20:08.667Z,100371.97
2022-12-09T17:25:11.246Z,100366.84
2022-12-09T17:30:15.471Z,100364.19
2022-12-09T17:35:18.916Z,100278.31
2022-12-09T17:40:21.791Z,100382.19
2022-12-09T17:45:25.659Z,100286.19
2022-12-09T17:50:28.251Z,100389.22
2022-12-09T17:55:31.110Z,100392.59
2022-12-09T18:00:35.195Z,100390.22
2022-12-09T18:05:38.489Z,100364.44
2022-12-09T18:10:42.046Z,100404.34
2022-12-09T18:15:49.789Z,100406.44
2022-12-09T18:21:00.447Z,100413.31
2022-12-09T18:26:07.781Z,100415.53
2022-12-09T18:31:15.149Z,100425.84
2022-12-09T18:36:19.778Z,100428.06
2022-12-09T18:41:24.826Z,100427.41
2022-12-09T18:46:30.154Z,100427.50
2022-12-09T18:51:33.419Z,100424.88
2022-12-09T18:56:37.016Z,100339.03
2022-12-09T19:01:42.718Z,100427.88
2022-12-09T19:06:47.806Z,100428.66
2022-12-09T19:11:52.251Z,100445.13
2022-12-09T19:16:56.452Z,100448.28
2022-12-09T19:21:59.560Z,100463.03
2022-12-09T19:27:02.209Z,100464.56
2022-12-09T19:32:23.557Z,100466.28
2022-12-09T19:37:29.270Z,100465.28
2022-12-09T19:42:32.139Z,100460.81
2022-12-09T19:47:36.467Z,100461.16
2022-12-09T19:52:39.133Z,100452.91
2022-12-09T19:57:41.823Z,100215.00
2022-12-09T20:02:45.893Z,100466.56
2022-12-09T20:07:49.144Z,100462.06
2022-12-09T20:12:52.419Z,100467.38
2022-12-09T20:17:56.378Z,100455.00
2022-12-09T20:22:59.012Z,100467.50
2022-12-09T20:28:01.715Z,100470.16
2022-12-09T20:33:05.865Z,100474.06
2022-12-09T20:38:08.414Z,100473.53
2022-12-09T20:43:11.023Z,100479.16
2022-12-09T20:48:15.049Z,100480.16
2022-12-09T20:53:18.872Z,100476.72
2022-12-09T20:58:21.545Z,100380.13
2022-12-09T21:03:25.637Z,100486.53
2022-12-09T21:08:31.453Z,100496.88
2022-12-09T21:13:37.773Z,100496.31
2022-12-09T21:18:41.652Z,100485.63
2022-12-09T21:23:44.647Z,100498.38
2022-12-09T21:28:48.526Z,100493.75
2022-12-09T21:33:54.320Z,100500.06
2022-12-09T21:38:57.266Z,100502.47
2022-12-09T21:44:00.189Z,100425.00
2022-12-09T21:49:06.803Z,100496.13
2022-12-09T21:54:09.619Z,100499.72
2022-12-09T21:59:12.709Z,100496.81
2022-12-09T22:04:17.500Z,100505.94
2022-12-09T22:09:20.927Z,100505.44
2022-12-09T22:14:23.660Z,100503.34
2022-12-09T22:19:27.576Z,100501.31
2022-12-09T22:24:30.120Z,100503.03
2022-12-09T22:29:32.622Z,100503.28
2022-12-09T22:34:36.463Z,100505.16
2022-12-09T22:39:40.819Z,100508.28
2022-12-09T22:44:43.354Z,100503.75
2022-12-09T22:49:47.356Z,100506.59
2022-12-09T22:54:49.891Z,100521.66
2022-12-09T22:59:52.547Z,100509.13
2022-12-09T23:04:56.391Z,100505.81
2022-12-09T23:09:58.915Z,100514.03
2022-12-09T23:15:01.533Z,100515.88
2022-12-09T23:20:06.614Z,100512.69
2022-12-09T23:25:09.946Z,100513.50
2022-12-09T23:30:13.890Z,100511.41
2022-12-09T23:35:18.135Z,100513.91
2022-12-09T23:40:20.709Z,100525.03
2022-12-09T23:45:23.197Z,100516.25
2022-12-09T23:50:27.073Z,100523.97
2022-12-09T23:55:29.607Z,100519.34
